sensor_id;sensor_type;location;lat;lon;timestamp;P1;durP1;ratioP1;P2;durP2;ratioP2
61460;SDS011;47325;50.506;4.472;2022-10-31T00:04:11;9.10;;;5.20;;
61460;SDS011;47325;50.506;4.472;2022-10-31T00:09:54;8.30;;;4.70;;
61460;SDS011;47325;50.506;4.472;2022-10-31T00:15:38;6.70;;;4.70;;
61460;SDS011;47325;50.506;4.472;2022-10-31T00:21:22;6.50;;;4.70;;
61460;SDS011;47325;50.506;4.472;2022-10-31T00:27:06;9.80;;;4.80;;
61460;SDS011;47325;50.506;4.472;2022-10-31T00:32:49;8.50;;;4.60;;
61460;SDS011;47325;50.506;4.472;2022-10-31T00:38:32;8.10;;;4.80;;
61460;SDS011;47325;50.506;4.472;2022-10-31T00:44:15;9.30;;;5.10;;
61460;SDS011;47325;50.506;4.472;2022-10-31T00:49:59;8.10;;;4.60;;
61460;SDS011;47325;50.506;4.472;2022-10-31T00:55:42;8.10;;;4.80;;
61460;SDS011;47325;50.506;4.472;2022-10-31T01:01:25;8.90;;;5.10;;
61460;SDS011;47325;50.506;4.472;2022-10-31T01:07:09;8.90;;;4.90;;
61460;SDS011;47325;50.506;4.472;2022-10-31T01:12:52;8.90;;;5.50;;
61460;SDS011;47325;50.506;4.472;2022-10-31T01:18:36;8.70;;;5.50;;
61460;SDS011;47325;50.506;4.472;2022-10-31T01:24:19;7.90;;;5.00;;
61460;SDS011;47325;50.506;4.472;2022-10-31T01:30:02;8.00;;;5.00;;
61460;SDS011;47325;50.506;4.472;2022-10-31T01:35:46;7.80;;;5.10;;
61460;SDS011;47325;50.506;4.472;2022-10-31T01:41:30;9.70;;;5.40;;
61460;SDS011;47325;50.506;4.472;2022-10-31T01:47:15;9.20;;;5.40;;
61460;SDS011;47325;50.506;4.472;2022-10-31T01:53:02;8.20;;;5.40;;
61460;SDS011;47325;50.506;4.472;2022-10-31T01:58:46;9.70;;;5.60;;
61460;SDS011;47325;50.506;4.472;2022-10-31T02:04:30;9.20;;;5.70;;
61460;SDS011;47325;50.506;4.472;2022-10-31T02:10:13;11.10;;;6.00;;
61460;SDS011;47325;50.506;4.472;2022-10-31T02:15:58;9.40;;;5.50;;
61460;SDS011;47325;50.506;4.472;2022-10-31T02:21:42;9.40;;;5.70;;
61460;SDS011;47325;50.506;4.472;2022-10-31T02:27:36;10.50;;;5.80;;
61460;SDS011;47325;50.506;4.472;2022-10-31T02:33:24;8.80;;;5.50;;
61460;SDS011;47325;50.506;4.472;2022-10-31T02:39:11;9.40;;;5.50;;
61460;SDS011;47325;50.506;4.472;2022-10-31T02:44:58;10.80;;;6.00;;
61460;SDS011;47325;50.506;4.472;2022-10-31T02:50:45;8.90;;;5.80;;
61460;SDS011;47325;50.506;4.472;2022-10-31T02:56:32;10.20;;;5.80;;
61460;SDS011;47325;50.506;4.472;2022-10-31T03:02:22;9.40;;;5.40;;
61460;SDS011;47325;50.506;4.472;2022-10-31T03:08:11;8.70;;;5.70;;
61460;SDS011;47325;50.506;4.472;2022-10-31T03:14:00;11.00;;;5.70;;
61460;SDS011;47325;50.506;4.472;2022-10-31T03:19:47;10.50;;;5.60;;
61460;SDS011;47325;50.506;4.472;2022-10-31T03:25:31;9.00;;;5.70;;
61460;SDS011;47325;50.506;4.472;2022-10-31T03:31:15;7.80;;;5.30;;
61460;SDS011;47325;50.506;4.472;2022-10-31T03:37:00;8.40;;;5.10;;
61460;SDS011;47325;50.506;4.472;2022-10-31T03:42:46;8.70;;;5.40;;
61460;SDS011;47325;50.506;4.472;2022-10-31T03:48:31;8.10;;;5.80;;
61460;SDS011;47325;50.506;4.472;2022-10-31T03:54:16;8.70;;;5.40;;
61460;SDS011;47325;50.506;4.472;2022-10-31T04:00:04;9.20;;;5.30;;
61460;SDS011;47325;50.506;4.472;2022-10-31T04:05:49;10.00;;;5.80;;
61460;SDS011;47325;50.506;4.472;2022-10-31T04:11:34;9.10;;;5.60;;
61460;SDS011;47325;50.506;4.472;2022-10-31T04:17:20;7.80;;;5.10;;
61460;SDS011;47325;50.506;4.472;2022-10-31T04:23:04;8.90;;;5.60;;
61460;SDS011;47325;50.506;4.472;2022-10-31T04:28:56;7.60;;;5.20;;
61460;SDS011;47325;50.506;4.472;2022-10-31T04:34:39;7.40;;;4.90;;
61460;SDS011;47325;50.506;4.472;2022-10-31T04:40:23;8.60;;;5.40;;
61460;SDS011;47325;50.506;4.472;2022-10-31T04:46:06;7.40;;;5.40;;
61460;SDS011;47325;50.506;4.472;2022-10-31T04:51:49;11.30;;;5.20;;
61460;SDS011;47325;50.506;4.472;2022-10-31T04:57:39;9.40;;;5.50;;
61460;SDS011;47325;50.506;4.472;2022-10-31T05:03:21;11.60;;;5.80;;
61460;SDS011;47325;50.506;4.472;2022-10-31T05:09:05;9.20;;;5.50;;
61460;SDS011;47325;50.506;4.472;2022-10-31T05:14:48;7.90;;;4.90;;
61460;SDS011;47325;50.506;4.472;2022-10-31T05:20:33;8.30;;;5.20;;
61460;SDS011;47325;50.506;4.472;2022-10-31T05:26:16;7.40;;;5.10;;
61460;SDS011;47325;50.506;4.472;2022-10-31T05:32:00;8.70;;;5.00;;
61460;SDS011;47325;50.506;4.472;2022-10-31T05:37:43;7.90;;;4.80;;
61460;SDS011;47325;50.506;4.472;2022-10-31T05:43:26;8.00;;;5.20;;
61460;SDS011;47325;50.506;4.472;2022-10-31T05:49:09;6.80;;;4.70;;
61460;SDS011;47325;50.506;4.472;2022-10-31T05:54:53;8.20;;;5.10;;
61460;SDS011;47325;50.506;4.472;2022-10-31T06:00:36;9.10;;;5.40;;
61460;SDS011;47325;50.506;4.472;2022-10-31T06:06:19;11.20;;;5.90;;
61460;SDS011;47325;50.506;4.472;2022-10-31T06:12:04;11.90;;;5.90;;
61460;SDS011;47325;50.506;4.472;2022-10-31T06:17:47;13.10;;;5.70;;
61460;SDS011;47325;50.506;4.472;2022-10-31T06:23:30;10.30;;;6.10;;
61460;SDS011;47325;50.506;4.472;2022-10-31T06:29:13;11.40;;;6.00;;
61460;SDS011;47325;50.506;4.472;2022-10-31T06:34:56;10.80;;;6.50;;
61460;SDS011;47325;50.506;4.472;2022-10-31T06:40:42;11.30;;;6.10;;
61460;SDS011;47325;50.506;4.472;2022-10-31T06:46:25;11.40;;;5.70;;
61460;SDS011;47325;50.506;4.472;2022-10-31T06:52:08;11.90;;;6.00;;
61460;SDS011;47325;50.506;4.472;2022-10-31T06:57:53;10.80;;;6.00;;
61460;SDS011;47325;50.506;4.472;2022-10-31T07:03:45;10.60;;;6.00;;
61460;SDS011;47325;50.506;4.472;2022-10-31T07:09:28;11.90;;;6.40;;
61460;SDS011;47325;50.506;4.472;2022-10-31T07:15:12;12.30;;;6.20;;
61460;SDS011;47325;50.506;4.472;2022-10-31T07:20:56;9.30;;;5.40;;
61460;SDS011;47325;50.506;4.472;2022-10-31T07:26:41;12.30;;;5.80;;
61460;SDS011;47325;50.506;4.472;2022-10-31T07:32:25;9.70;;;5.60;;
61460;SDS011;47325;50.506;4.472;2022-10-31T07:38:12;9.70;;;6.00;;
61460;SDS011;47325;50.506;4.472;2022-10-31T07:43:55;10.40;;;5.30;;
61460;SDS011;47325;50.506;4.472;2022-10-31T07:49:39;10.00;;;5.70;;
61460;SDS011;47325;50.506;4.472;2022-10-31T07:55:23;10.80;;;5.80;;
61460;SDS011;47325;50.506;4.472;2022-10-31T08:01:06;9.60;;;5.80;;
61460;SDS011;47325;50.506;4.472;2022-10-31T08:06:50;9.40;;;5.70;;
61460;SDS011;47325;50.506;4.472;2022-10-31T08:12:34;11.50;;;6.60;;
61460;SDS011;47325;50.506;4.472;2022-10-31T08:18:17;11.10;;;6.50;;
61460;SDS011;47325;50.506;4.472;2022-10-31T08:24:01;13.30;;;6.80;;
61460;SDS011;47325;50.506;4.472;2022-10-31T08:29:44;13.40;;;6.90;;
61460;SDS011;47325;50.506;4.472;2022-10-31T08:35:28;17.60;;;6.90;;
61460;SDS011;47325;50.506;4.472;2022-10-31T08:41:11;16.20;;;6.40;;
61460;SDS011;47325;50.506;4.472;2022-10-31T08:46:54;15.30;;;6.50;;
61460;SDS011;47325;50.506;4.472;2022-10-31T08:52:37;13.90;;;6.30;;
61460;SDS011;47325;50.506;4.472;2022-10-31T08:58:40;11.50;;;5.90;;
61460;SDS011;47325;50.506;4.472;2022-10-31T09:04:23;14.30;;;5.80;;
61460;SDS011;47325;50.506;4.472;2022-10-31T09:10:07;11.60;;;5.80;;
61460;SDS011;47325;50.506;4.472;2022-10-31T09:15:51;11.70;;;5.80;;
61460;SDS011;47325;50.506;4.472;2022-10-31T09:21:35;12.20;;;5.80;;
61460;SDS011;47325;50.506;4.472;2022-10-31T09:27:19;10.70;;;5.80;;
61460;SDS011;47325;50.506;4.472;2022-10-31T09:33:03;12.80;;;5.60;;
61460;SDS011;47325;50.506;4.472;2022-10-31T09:38:46;10.30;;;5.60;;
61460;SDS011;47325;50.506;4.472;2022-10-31T09:44:30;9.00;;;5.30;;
61460;SDS011;47325;50.506;4.472;2022-10-31T09:50:18;9.90;;;5.70;;
61460;SDS011;47325;50.506;4.472;2022-10-31T09:56:02;10.20;;;5.40;;
61460;SDS011;47325;50.506;4.472;2022-10-31T10:01:49;10.00;;;5.20;;
61460;SDS011;47325;50.506;4.472;2022-10-31T10:07:44;10.10;;;5.30;;
61460;SDS011;47325;50.506;4.472;2022-10-31T10:13:36;10.00;;;5.30;;
61460;SDS011;47325;50.506;4.472;2022-10-31T10:19:27;9.40;;;5.00;;
61460;SDS011;47325;50.506;4.472;2022-10-31T10:25:20;9.40;;;5.10;;
61460;SDS011;47325;50.506;4.472;2022-10-31T10:31:07;8.10;;;4.90;;
61460;SDS011;47325;50.506;4.472;2022-10-31T10:36:53;9.10;;;4.50;;
61460;SDS011;47325;50.506;4.472;2022-10-31T10:42:38;6.60;;;4.30;;
61460;SDS011;47325;50.506;4.472;2022-10-31T10:48:24;7.60;;;4.50;;
61460;SDS011;47325;50.506;4.472;2022-10-31T10:54:21;7.70;;;4.50;;
61460;SDS011;47325;50.506;4.472;2022-10-31T11:00:11;9.00;;;4.50;;
61460;SDS011;47325;50.506;4.472;2022-10-31T11:05:54;7.30;;;4.70;;
61460;SDS011;47325;50.506;4.472;2022-10-31T11:11:38;7.20;;;4.40;;
61460;SDS011;47325;50.506;4.472;2022-10-31T11:17:25;8.00;;;4.50;;
61460;SDS011;47325;50.506;4.472;2022-10-31T11:23:16;6.70;;;4.50;;
61460;SDS011;47325;50.506;4.472;2022-10-31T11:29:01;7.30;;;4.10;;
61460;SDS011;47325;50.506;4.472;2022-10-31T11:34:45;9.10;;;4.60;;
61460;SDS011;47325;50.506;4.472;2022-10-31T11:40:31;7.00;;;4.10;;
61460;SDS011;47325;50.506;4.472;2022-10-31T11:46:15;7.00;;;3.70;;
61460;SDS011;47325;50.506;4.472;2022-10-31T11:52:01;8.70;;;4.40;;
61460;SDS011;47325;50.506;4.472;2022-10-31T11:57:48;7.20;;;4.20;;
61460;SDS011;47325;50.506;4.472;2022-10-31T12:03:35;9.20;;;4.20;;
61460;SDS011;47325;50.506;4.472;2022-10-31T12:09:22;7.00;;;3.80;;
61460;SDS011;47325;50.506;4.472;2022-10-31T12:15:10;7.60;;;4.10;;
61460;SDS011;47325;50.506;4.472;2022-10-31T12:21:00;7.20;;;3.80;;
61460;SDS011;47325;50.506;4.472;2022-10-31T12:26:49;6.20;;;3.70;;
61460;SDS011;47325;50.506;4.472;2022-10-31T12:32:38;7.10;;;3.80;;
61460;SDS011;47325;50.506;4.472;2022-10-31T12:38:30;7.20;;;3.60;;
61460;SDS011;47325;50.506;4.472;2022-10-31T12:44:22;7.40;;;3.60;;
61460;SDS011;47325;50.506;4.472;2022-10-31T12:50:16;7.00;;;3.70;;
61460;SDS011;47325;50.506;4.472;2022-10-31T12:56:06;8.40;;;3.70;;
61460;SDS011;47325;50.506;4.472;2022-10-31T13:01:55;6.90;;;3.50;;
61460;SDS011;47325;50.506;4.472;2022-10-31T13:07:44;7.10;;;3.40;;
61460;SDS011;47325;50.506;4.472;2022-10-31T13:13:31;8.10;;;4.00;;
61460;SDS011;47325;50.506;4.472;2022-10-31T13:19:18;6.70;;;3.70;;
61460;SDS011;47325;50.506;4.472;2022-10-31T13:25:03;7.40;;;4.20;;
61460;SDS011;47325;50.506;4.472;2022-10-31T13:30:47;6.10;;;3.70;;
61460;SDS011;47325;50.506;4.472;2022-10-31T13:36:33;7.00;;;3.40;;
61460;SDS011;47325;50.506;4.472;2022-10-31T13:42:19;7.60;;;3.50;;
61460;SDS011;47325;50.506;4.472;2022-10-31T13:48:19;5.00;;;3.40;;
61460;SDS011;47325;50.506;4.472;2022-10-31T13:54:06;7.60;;;3.50;;
61460;SDS011;47325;50.506;4.472;2022-10-31T13:59:51;7.10;;;3.80;;
61460;SDS011;47325;50.506;4.472;2022-10-31T14:05:39;5.50;;;3.50;;
61460;SDS011;47325;50.506;4.472;2022-10-31T14:11:26;8.50;;;3.80;;
61460;SDS011;47325;50.506;4.472;2022-10-31T14:17:20;8.10;;;3.70;;
61460;SDS011;47325;50.506;4.472;2022-10-31T14:28:59;6.20;;;3.50;;
61460;SDS011;47325;50.506;4.472;2022-10-31T14:34:43;7.30;;;3.40;;
61460;SDS011;47325;50.506;4.472;2022-10-31T14:40:33;6.20;;;3.40;;
61460;SDS011;47325;50.506;4.472;2022-10-31T14:46:22;7.30;;;3.80;;
61460;SDS011;47325;50.506;4.472;2022-10-31T14:52:10;5.00;;;3.40;;
61460;SDS011;47325;50.506;4.472;2022-10-31T14:57:57;8.00;;;3.50;;
61460;SDS011;47325;50.506;4.472;2022-10-31T15:03:42;6.00;;;3.40;;
61460;SDS011;47325;50.506;4.472;2022-10-31T15:09:54;7.40;;;3.40;;
61460;SDS011;47325;50.506;4.472;2022-10-31T15:15:36;6.60;;;3.60;;
61460;SDS011;47325;50.506;4.472;2022-10-31T15:21:20;6.20;;;3.50;;
61460;SDS011;47325;50.506;4.472;2022-10-31T15:27:04;7.00;;;3.50;;
61460;SDS011;47325;50.506;4.472;2022-10-31T15:32:48;7.10;;;3.50;;
61460;SDS011;47325;50.506;4.472;2022-10-31T15:38:40;6.90;;;3.20;;
61460;SDS011;47325;50.506;4.472;2022-10-31T15:44:24;6.70;;;3.40;;
61460;SDS011;47325;50.506;4.472;2022-10-31T15:50:18;7.70;;;3.30;;
61460;SDS011;47325;50.506;4.472;2022-10-31T15:56:04;6.80;;;3.30;;
61460;SDS011;47325;50.506;4.472;2022-10-31T16:01:53;7.00;;;3.40;;
61460;SDS011;47325;50.506;4.472;2022-10-31T16:07:51;6.90;;;3.40;;
61460;SDS011;47325;50.506;4.472;2022-10-31T16:13:35;6.80;;;3.50;;
61460;SDS011;47325;50.506;4.472;2022-10-31T16:19:20;7.30;;;3.40;;
61460;SDS011;47325;50.506;4.472;2022-10-31T16:25:08;7.20;;;3.40;;
61460;SDS011;47325;50.506;4.472;2022-10-31T16:30:54;7.20;;;3.40;;
61460;SDS011;47325;50.506;4.472;2022-10-31T16:36:37;9.20;;;3.60;;
61460;SDS011;47325;50.506;4.472;2022-10-31T16:42:22;8.30;;;3.70;;
61460;SDS011;47325;50.506;4.472;2022-10-31T16:48:06;6.30;;;3.80;;
61460;SDS011;47325;50.506;4.472;2022-10-31T16:53:53;7.60;;;3.80;;
61460;SDS011;47325;50.506;4.472;2022-10-31T16:59:37;6.40;;;3.50;;
61460;SDS011;47325;50.506;4.472;2022-10-31T17:05:20;7.20;;;3.80;;
61460;SDS011;47325;50.506;4.472;2022-10-31T17:11:04;6.80;;;3.80;;
61460;SDS011;47325;50.506;4.472;2022-10-31T17:16:49;9.40;;;3.90;;
61460;SDS011;47325;50.506;4.472;2022-10-31T17:22:33;6.60;;;3.80;;
61460;SDS011;47325;50.506;4.472;2022-10-31T17:28:17;7.40;;;3.70;;
61460;SDS011;47325;50.506;4.472;2022-10-31T17:34:00;7.90;;;4.00;;
61460;SDS011;47325;50.506;4.472;2022-10-31T17:39:45;8.60;;;3.70;;
61460;SDS011;47325;50.506;4.472;2022-10-31T17:45:29;8.00;;;3.80;;
61460;SDS011;47325;50.506;4.472;2022-10-31T17:51:12;6.40;;;3.70;;
61460;SDS011;47325;50.506;4.472;2022-10-31T17:56:55;8.70;;;3.90;;
61460;SDS011;47325;50.506;4.472;2022-10-31T18:02:38;5.40;;;3.60;;
61460;SDS011;47325;50.506;4.472;2022-10-31T18:08:23;9.40;;;4.20;;
61460;SDS011;47325;50.506;4.472;2022-10-31T18:14:07;7.60;;;4.00;;
61460;SDS011;47325;50.506;4.472;2022-10-31T18:19:50;9.40;;;4.20;;
61460;SDS011;47325;50.506;4.472;2022-10-31T18:25:34;6.50;;;3.80;;
61460;SDS011;47325;50.506;4.472;2022-10-31T18:31:18;8.00;;;4.00;;
61460;SDS011;47325;50.506;4.472;2022-10-31T18:37:02;7.50;;;3.90;;
61460;SDS011;47325;50.506;4.472;2022-10-31T18:42:45;9.50;;;4.00;;
61460;SDS011;47325;50.506;4.472;2022-10-31T18:48:28;10.30;;;4.00;;
61460;SDS011;47325;50.506;4.472;2022-10-31T18:54:12;8.40;;;4.20;;
61460;SDS011;47325;50.506;4.472;2022-10-31T18:59:55;7.50;;;4.50;;
61460;SDS011;47325;50.506;4.472;2022-10-31T19:05:38;7.40;;;4.10;;
61460;SDS011;47325;50.506;4.472;2022-10-31T19:11:22;8.30;;;4.00;;
61460;SDS011;47325;50.506;4.472;2022-10-31T19:17:05;6.70;;;4.20;;
61460;SDS011;47325;50.506;4.472;2022-10-31T19:22:48;6.90;;;3.90;;
61460;SDS011;47325;50.506;4.472;2022-10-31T19:28:33;5.60;;;3.60;;
61460;SDS011;47325;50.506;4.472;2022-10-31T19:34:16;8.60;;;4.20;;
61460;SDS011;47325;50.506;4.472;2022-10-31T19:40:00;7.70;;;4.10;;
61460;SDS011;47325;50.506;4.472;2022-10-31T19:45:47;6.90;;;4.10;;
61460;SDS011;47325;50.506;4.472;2022-10-31T19:51:33;8.00;;;4.00;;
61460;SDS011;47325;50.506;4.472;2022-10-31T19:57:16;7.90;;;3.90;;
61460;SDS011;47325;50.506;4.472;2022-10-31T20:03:15;8.20;;;3.90;;
61460;SDS011;47325;50.506;4.472;2022-10-31T20:09:05;9.50;;;4.10;;
61460;SDS011;47325;50.506;4.472;2022-10-31T20:14:48;8.00;;;4.20;;
61460;SDS011;47325;50.506;4.472;2022-10-31T20:20:32;9.30;;;4.20;;
61460;SDS011;47325;50.506;4.472;2022-10-31T20:26:17;7.50;;;3.90;;
61460;SDS011;47325;50.506;4.472;2022-10-31T20:32:01;6.30;;;3.70;;
61460;SDS011;47325;50.506;4.472;2022-10-31T20:37:44;7.40;;;3.90;;
61460;SDS011;47325;50.506;4.472;2022-10-31T20:43:28;6.90;;;4.00;;
61460;SDS011;47325;50.506;4.472;2022-10-31T20:49:12;6.80;;;3.90;;
61460;SDS011;47325;50.506;4.472;2022-10-31T20:54:55;10.60;;;3.90;;
61460;SDS011;47325;50.506;4.472;2022-10-31T21:00:38;9.20;;;4.10;;
61460;SDS011;47325;50.506;4.472;2022-10-31T21:06:22;5.40;;;3.80;;
61460;SDS011;47325;50.506;4.472;2022-10-31T21:12:05;7.40;;;3.90;;
61460;SDS011;47325;50.506;4.472;2022-10-31T21:17:48;7.10;;;3.80;;
61460;SDS011;47325;50.506;4.472;2022-10-31T21:23:31;8.20;;;4.10;;
61460;SDS011;47325;50.506;4.472;2022-10-31T21:29:15;7.20;;;4.10;;
61460;SDS011;47325;50.506;4.472;2022-10-31T21:34:58;10.00;;;4.00;;
61460;SDS011;47325;50.506;4.472;2022-10-31T21:40:43;9.00;;;4.00;;
61460;SDS011;47325;50.506;4.472;2022-10-31T21:46:28;7.70;;;4.00;;
61460;SDS011;47325;50.506;4.472;2022-10-31T21:52:12;6.70;;;4.00;;
61460;SDS011;47325;50.506;4.472;2022-10-31T21:57:55;8.30;;;4.20;;
61460;SDS011;47325;50.506;4.472;2022-10-31T22:03:39;7.20;;;4.10;;
61460;SDS011;47325;50.506;4.472;2022-10-31T22:09:24;7.60;;;4.20;;
61460;SDS011;47325;50.506;4.472;2022-10-31T22:15:08;8.10;;;4.10;;
61460;SDS011;47325;50.506;4.472;2022-10-31T22:20:51;8.50;;;4.20;;
61460;SDS011;47325;50.506;4.472;2022-10-31T22:26:34;7.00;;;4.30;;
61460;SDS011;47325;50.506;4.472;2022-10-31T22:32:19;7.30;;;3.90;;
61460;SDS011;47325;50.506;4.472;2022-10-31T22:38:02;10.90;;;4.80;;
61460;SDS011;47325;50.506;4.472;2022-10-31T22:43:45;8.70;;;4.30;;
61460;SDS011;47325;50.506;4.472;2022-10-31T22:49:29;6.70;;;4.00;;
61460;SDS011;47325;50.506;4.472;2022-10-31T22:55:12;7.30;;;4.00;;
61460;SDS011;47325;50.506;4.472;2022-10-31T23:00:56;7.30;;;4.20;;
61460;SDS011;47325;50.506;4.472;2022-10-31T23:06:40;8.90;;;4.40;;
61460;SDS011;47325;50.506;4.472;2022-10-31T23:12:25;7.80;;;4.30;;
61460;SDS011;47325;50.506;4.472;2022-10-31T23:18:11;7.30;;;3.90;;
61460;SDS011;47325;50.506;4.472;2022-10-31T23:24:15;8.90;;;3.90;;
61460;SDS011;47325;50.506;4.472;2022-10-31T23:29:58;8.00;;;4.00;;
61460;SDS011;47325;50.506;4.472;2022-10-31T23:35:43;6.40;;;3.80;;
61460;SDS011;47325;50.506;4.472;2022-10-31T23:41:26;7.40;;;3.90;;
61460;SDS011;47325;50.506;4.472;2022-10-31T23:47:09;8.60;;;4.20;;
61460;SDS011;47325;50.506;4.472;2022-10-31T23:52:53;6.30;;;3.70;;
61460;SDS011;47325;50.506;4.472;2022-10-31T23:58:36;9.00;;;3.90;;
